Allingtown, Connecticut
Current Conditions -  °F | °C
As of 1:53 AM on Saturday 25 Oct 2014 (Local Time) from KHVN Reporting Station
Clear Clear  
Wind Chill: 53°   Ceiling: Unl
Heat Index: 53°   Visibility: 10mi
Dew Point: 44°   Wind: 7mph
Humidity: 71%   Direction: 310°NW
Pressure: 29.81"   Gusts: NA
Location:  41.2716°N, 72.9666°W
Report Text: KHVN 250553Z AUTO 31006KT 10SM CLR 12/07 A2981 RMK AO2 SLP095 T01170067 10128 20106 53003
Loading
Personal Weather Stations






























Interactive Weather Map
Tropical Storm Tracking
New forecast layout! Learn more

10-Day Weather Forecast

Advertisements
Track Severe Weather on mobile